Portada
METAR-TAF:

METAR-TAF

Aeroports :

Al-Hassà, Aràbia Saudita

latitud: 25-18N, longitud: 049-29E, altitud: 179 m

Observació

L'informe es va fer fa 43 minuts, a les 22:00 UTC
Vent 3 kt del Nord
Temperatura 17°C
Humitat 52%
Pressió 1017 hPa
Visibilitat 10 km o més
sense núvols per sota de 1500 mi sense presència de cumulonimbus.

METAR: OEAH 132200Z 35003KT CAVOK 17/07 Q1017 NOSIG

Hora: 01:43 (22:43 UTC)

Pronòstic

L'informe es va fer fa 11 hores i 43 minuts, a les 11:00 UTC
Pronòstic vàlid del 13 a les 12 UTC al 14 a les 18 UTC
Vent 10 kt del Nord/Nord-Est
Visibilitat: 7000 m
Evolucionant progressivament
l' 13 a les 18 UTC al 13 a les 20 UTC
Vent 6 kt del Nord/Nord-Oest

TAF: OEAH 131100Z 1312/1418 03010KT 7000 NSC BECMG 1318/1320 33006KT

Observacions i pronòstics meteorològics de més de 4000 aeroports (METAR i TAF).

Les estacions disponibles són els punts grocs i vermells al mapa.

Posi el ratolí al punt desitjat per veure el nom de l'estació.

Feu clic per veure les observacions i els pronòstics meteorològics.

Per canviar el mapa: feu clic els botons verds amb una creu de color negre per apropar; al botó verd amb un guió per allunyar la imatge; o en les fletxes verdes per a mapes adjacents.


METAR-TAF: